Time;durP1;ratioP1;P1;durP2;ratioP2;P2;SDS_P1;SDS_P2;PMS_P1;PMS_P2;Temp;Humidity;BMP_temperature;BMP_pressure;BME280_temperature;BME280_humidity;BME280_pressure;Samples;Min_cycle;Max_cycle;Signal;HPM_P1;HPM_P2
2022/06/05 00:00:22;;;;;;;;;13.50;13.50;;;;;21.53;66.05;100869.28;2104905;27;47395;-62
2022/06/05 00:01:23;;;;;;;;;11.00;10.60;;;;;21.51;65.96;100866.66;2094920;28;47366;-60
2022/06/05 00:02:33;;;;;;;;;13.50;12.75;;;;;21.51;65.92;100863.97;2095474;28;47892;-62
2022/06/05 00:03:47;;;;;;;;;11.40;11.00;;;;;21.50;66.19;100859.53;2109940;27;47455;-62
2022/06/05 00:05:12;;;;;;;;;16.40;13.60;;;;;21.49;66.51;100852.41;2108445;27;47573;-62
2022/06/05 00:06:40;;;;;;;;;11.00;11.00;;;;;21.49;66.30;100851.53;2099599;27;48119;-62
2022/06/05 00:08:16;;;;;;;;;11.60;11.60;;;;;21.48;66.29;100858.78;2105064;28;47499;-64
2022/06/05 00:09:49;;;;;;;;;12.00;11.00;;;;;21.48;66.62;100850.69;2097572;28;48429;-60
2022/06/05 00:10:58;;;;;;;;;13.80;12.20;;;;;21.47;66.12;100859.75;2104265;28;48126;-62
2022/06/05 00:12:07;;;;;;;;;14.20;14.20;;;;;21.47;66.80;100854.34;2095586;28;48193;-62
2022/06/05 00:13:16;;;;;;;;;9.60;9.60;;;;;21.45;66.46;100858.94;2098274;27;48090;-62
2022/06/05 00:14:17;;;;;;;;;15.40;13.60;;;;;21.46;66.08;100855.28;2100387;27;48053;-61
2022/06/05 00:15:17;;;;;;;;;12.25;12.25;;;;;21.45;66.69;100856.25;2109572;27;47876;-61
2022/06/05 00:16:25;;;;;;;;;13.25;12.25;;;;;21.47;66.63;100862.44;2104849;27;45699;-62
2022/06/05 00:17:26;;;;;;;;;13.00;12.40;;;;;21.45;66.51;100857.13;2096843;27;48289;-61
2022/06/05 00:18:26;;;;;;;;;11.00;11.00;;;;;21.45;66.76;100851.72;2104716;28;47686;-61
2022/06/05 00:19:29;;;;;;;;;13.25;13.25;;;;;21.44;66.44;100855.38;2100998;27;47821;-61
2022/06/05 00:20:31;;;;;;;;;12.60;11.80;;;;;21.45;66.46;100856.25;2104679;28;47592;-62
2022/06/05 00:21:32;;;;;;;;;13.00;13.00;;;;;21.45;66.17;100857.13;2104570;27;47450;-62
2022/06/05 00:22:33;;;;;;;;;11.00;11.00;;;;;21.45;66.30;100857.13;2101949;27;47597;-62
2022/06/05 00:23:34;;;;;;;;;13.00;11.40;;;;;21.45;66.16;100853.56;2103334;28;47687;-62
2022/06/05 00:24:35;;;;;;;;;12.40;12.40;;;;;21.45;66.22;100856.25;2100215;27;47510;-62
2022/06/05 00:26:00;;;;;;;;;10.60;10.60;;;;;21.44;66.52;100849.97;2095386;28;47966;-62
2022/06/05 00:27:13;;;;;;;;;10.80;10.80;;;;;21.42;66.28;100843.81;2096147;28;47934;-61
2022/06/05 00:28:19;;;;;;;;;11.60;10.20;;;;;21.41;66.10;100843.94;2102818;27;48067;-62
2022/06/05 00:29:28;;;;;;;;;12.20;11.80;;;;;21.39;66.62;100841.31;2103360;27;47735;-62
2022/06/05 00:30:31;;;;;;;;;13.60;13.00;;;;;21.41;66.56;100842.09;2102307;27;48073;-62
2022/06/05 00:31:40;;;;;;;;;13.40;13.40;;;;;21.40;66.61;100845.75;2096939;27;48029;-62
2022/06/05 00:33:08;;;;;;;;;13.00;13.00;;;;;21.41;66.89;100835.81;2098367;27;48031;-62
2022/06/05 00:34:09;;;;;;;;;15.25;11.50;;;;;21.41;66.46;100842.09;2104325;27;47732;-61
2022/06/05 00:35:15;;;;;;;;;11.50;11.50;;;;;21.41;66.32;100843.94;2104427;27;47885;-61
2022/06/05 00:36:41;;;;;;;;;14.00;13.80;;;;;21.42;66.30;100845.66;2100717;28;47939;-62
2022/06/05 00:37:44;;;;;;;;;14.50;14.25;;;;;21.40;66.21;100840.38;2101294;27;48217;-62
2022/06/05 00:39:05;;;;;;;;;15.80;15.20;;;;;21.40;66.50;100847.59;2097421;27;47906;-62
2022/06/05 00:40:33;;;;;;;;;16.60;15.60;;;;;21.37;66.42;100837.88;2096830;27;48185;-62
2022/06/05 00:41:58;;;;;;;;;15.00;14.40;;;;;21.36;66.82;100833.44;2097477;28;47818;-62
2022/06/05 00:43:01;;;;;;;;;14.60;14.60;;;;;21.37;66.68;100823.50;2099305;27;48036;-62
2022/06/05 00:44:05;;;;;;;;;16.00;15.40;;;;;21.37;66.21;100832.47;2095964;28;47261;-62
2022/06/05 00:45:09;;;;;;;;;13.00;13.00;;;;;21.39;66.96;100829.66;2097062;28;48234;-62
2022/06/05 00:46:09;;;;;;;;;17.20;14.00;;;;;21.39;66.50;100825.13;2083996;28;47954;-62
2022/06/05 00:47:15;;;;;;;;;14.00;14.00;;;;;21.41;66.52;100827.72;2071633;28;45567;-62
2022/06/05 00:48:17;;;;;;;;;15.60;15.40;;;;;21.41;66.39;100814.22;2097568;27;48043;-62
2022/06/05 00:49:21;;;;;;;;;12.50;12.50;;;;;21.41;66.38;100814.22;2098762;27;47335;-62
2022/06/05 00:50:25;;;;;;;;;14.40;14.40;;;;;21.39;66.76;100814.34;2098170;27;48006;-62
2022/06/05 00:51:25;;;;;;;;;17.00;15.00;;;;;21.40;66.40;100809.78;2077550;28;47833;-62
2022/06/05 00:52:29;;;;;;;;;16.75;16.25;;;;;21.39;66.40;100806.22;2079418;28;47617;-62
2022/06/05 00:53:30;;;;;;;;;16.25;16.25;;;;;21.40;66.17;100807.09;2105066;27;47939;-61
2022/06/05 00:54:30;;;;;;;;;14.00;14.00;;;;;21.40;66.65;100804.41;2100193;27;47895;-62
2022/06/05 00:55:42;;;;;;;;;13.25;13.25;;;;;21.42;66.51;100805.16;2106373;27;47670;-61
2022/06/05 00:56:42;;;;;;;;;14.25;14.00;;;;;21.43;66.81;100806.88;2097580;27;47422;-61
2022/06/05 00:57:43;;;;;;;;;13.33;12.67;;;;;21.43;66.30;100807.75;2098257;27;47658;-61
2022/06/05 00:58:44;;;;;;;;;13.33;12.67;;;;;21.44;66.71;100809.47;2104936;27;48129;-62
2022/06/05 00:59:46;;;;;;;;;10.50;10.50;;;;;21.45;66.88;100810.34;2100619;27;47666;-62
2022/06/05 01:00:51;;;;;;;;;13.25;13.25;;;;;21.44;66.44;100811.31;2099403;27;47451;-61
2022/06/05 01:01:53;;;;;;;;;14.00;13.50;;;;;21.43;66.99;100818.56;2098823;27;48107;-61
2022/06/05 01:02:55;;;;;;;;;16.25;15.50;;;;;21.44;66.34;100820.28;2098425;27;47662;-62
2022/06/05 01:04:01;;;;;;;;;15.00;13.00;;;;;21.45;66.93;100823.84;2104135;27;47652;-62
2022/06/05 01:05:02;;;;;;;;;15.00;15.00;;;;;21.43;67.00;100826.66;2105004;27;47993;-62
2022/06/05 01:06:03;;;;;;;;;17.75;15.75;;;;;21.43;66.59;100815.84;2111801;27;47194;-62
2022/06/05 01:07:04;;;;;;;;;14.00;12.40;;;;;21.42;66.73;100815.97;2099545;27;47704;-62
2022/06/05 01:08:06;;;;;;;;;11.50;11.50;;;;;21.43;66.72;100826.66;2087682;28;47737;-63
2022/06/05 01:09:06;;;;;;;;;13.40;13.40;;;;;21.43;66.44;100813.16;2087844;28;47824;-62
2022/06/05 01:10:09;;;;;;;;;13.75;12.75;;;;;21.44;66.59;100819.41;2106013;27;48067;-62
2022/06/05 01:11:43;;;;;;;;;15.50;15.50;;;;;21.45;66.67;100818.44;2107298;27;47749;-62
2022/06/05 01:12:55;;;;;;;;;16.20;14.40;;;;;21.47;66.86;100815.66;2107029;27;47996;-62
2022/06/05 01:14:04;;;;;;;;;12.20;12.20;;;;;21.48;66.26;100814.72;2101974;28;47405;-61
2022/06/05 01:15:30;;;;;;;;;15.80;15.40;;;;;21.48;66.83;100818.28;2099335;28;48024;-62
2022/06/05 01:16:42;;;;;;;;;13.50;13.50;;;;;21.47;65.93;100811.16;2107699;27;48323;-62
2022/06/05 01:18:04;;;;;;;;;12.60;12.40;;;;;21.48;66.30;100810.19;2108420;27;47629;-62
2022/06/05 01:19:18;;;;;;;;;14.50;14.25;;;;;21.48;66.22;100812.88;2097590;28;47892;-61
2022/06/05 01:20:41;;;;;;;;;14.00;12.60;;;;;21.47;66.46;100808.44;2104920;28;48040;-62
2022/06/05 01:22:18;;;;;;;;;14.80;14.80;;;;;21.47;66.24;100802.16;2103338;28;47487;-62
2022/06/05 01:23:49;;;;;;;;;18.00;15.25;;;;;21.46;66.67;100787.78;2071930;28;47979;-62
2022/06/05 01:25:01;;;;;;;;;13.60;13.60;;;;;21.45;66.88;100784.22;2075746;28;47607;-62
2022/06/05 01:26:09;;;;;;;;;17.40;15.40;;;;;21.46;66.38;100782.38;2078191;28;48633;-62
2022/06/05 01:27:14;;;;;;;;;16.80;13.40;;;;;21.46;66.80;100774.28;2079367;28;47579;-62
2022/06/05 01:28:21;;;;;;;;;14.60;13.40;;;;;21.47;66.38;100773.34;2063297;28;46265;-62
2022/06/05 01:29:32;;;;;;;;;15.40;14.60;;;;;21.47;66.28;100769.75;2063943;28;47689;-62
2022/06/05 01:30:42;;;;;;;;;14.80;14.80;;;;;21.48;66.49;100768.81;2071516;28;47756;-62
2022/06/05 01:31:49;;;;;;;;;12.00;11.80;;;;;21.48;66.66;100758.88;2071209;28;47377;-62
2022/06/05 01:33:21;;;;;;;;;14.00;13.75;;;;;21.49;66.85;100762.44;2075671;28;47918;-62
2022/06/05 01:34:53;;;;;;;;;15.00;13.00;;;;;21.50;66.76;100756.06;2074611;28;47767;-62
2022/06/05 01:36:25;;;;;;;;;16.80;14.60;;;;;21.49;66.64;100754.34;2071605;28;47869;-63
2022/06/05 01:37:44;;;;;;;;;13.80;13.80;;;;;21.49;66.31;100754.34;2071365;28;48430;-62
2022/06/05 01:39:04;;;;;;;;;13.00;13.00;;;;;21.47;66.25;100750.84;2079762;28;47549;-62
2022/06/05 01:40:22;;;;;;;;;14.80;14.80;;;;;21.44;66.21;100741.13;2079837;28;48382;-62
2022/06/05 01:41:30;;;;;;;;;16.00;14.60;;;;;21.44;66.48;100743.81;2071862;28;47846;-63
2022/06/05 01:42:40;;;;;;;;;15.80;15.80;;;;;21.41;66.07;100736.81;2082729;28;47980;-62
2022/06/05 01:43:47;;;;;;;;;14.00;14.00;;;;;21.40;66.76;100737.78;2077730;28;47576;-61
2022/06/05 01:44:51;;;;;;;;;15.60;13.60;;;;;21.39;66.30;100738.75;2072330;28;47650;-61
2022/06/05 01:45:58;;;;;;;;;13.20;12.00;;;;;21.38;66.35;100734.31;2079873;28;47350;-60
2022/06/05 01:47:05;;;;;;;;;14.40;14.40;;;;;21.40;66.74;100743.16;2078885;28;48048;-61
2022/06/05 01:48:11;;;;;;;;;18.40;18.40;;;;;21.40;66.58;100739.59;2079604;28;47430;-63
2022/06/05 01:49:18;;;;;;;;;15.60;15.60;;;;;21.40;66.78;100736.91;2079582;28;47588;-62
2022/06/05 01:50:50;;;;;;;;;16.00;14.80;;;;;21.38;66.56;100728.03;2079448;28;47306;-61
2022/06/05 01:51:56;;;;;;;;;16.40;16.20;;;;;21.38;67.03;100728.91;2046875;28;47813;-62
2022/06/05 01:53:06;;;;;;;;;15.80;15.80;;;;;21.39;66.80;100718.97;2047528;28;47725;-62
2022/06/05 01:54:13;;;;;;;;;15.80;15.80;;;;;21.38;66.86;100715.41;2046766;28;47750;-62
2022/06/05 01:55:24;;;;;;;;;19.00;16.00;;;;;21.38;66.73;100715.41;2046863;28;48125;-62
2022/06/05 01:56:36;;;;;;;;;16.20;16.00;;;;;21.38;66.58;100711.84;2046011;28;48626;-62
2022/06/05 01:57:36;;;;;;;;;21.00;20.60;;;;;21.37;66.91;100713.69;2046776;28;47528;-62
2022/06/05 01:58:44;;;;;;;;;29.75;28.25;;;;;21.37;66.67;100716.38;2047236;28;47712;-62
2022/06/05 01:59:49;;;;;;;;;25.20;25.00;;;;;21.36;66.58;100706.56;2046426;28;47648;-62
2022/06/05 02:00:54;;;;;;;;;18.80;18.80;;;;;21.37;66.73;100702.03;2051514;28;47171;-62
2022/06/05 02:01:58;;;;;;;;;21.40;21.40;;;;;21.37;67.24;100696.63;2069607;28;48101;-62
2022/06/05 02:03:01;;;;;;;;;19.40;19.40;;;;;21.37;67.06;100704.72;2070994;28;48351;-62
2022/06/05 02:04:34;;;;;;;;;20.60;19.60;;;;;21.36;67.16;100706.56;2071242;28;47158;-62
2022/06/05 02:05:46;;;;;;;;;20.60;20.60;;;;;21.36;66.87;100700.28;2047231;28;47412;-62
2022/06/05 02:06:56;;;;;;;;;25.20;24.20;;;;;21.36;67.10;100703.00;2046815;28;47853;-62
2022/06/05 02:08:03;;;;;;;;;27.00;25.60;;;;;21.34;67.04;100697.69;2046858;28;48212;-62
2022/06/05 02:09:11;;;;;;;;;22.40;22.40;;;;;21.35;66.74;100696.72;2047067;28;47359;-62
2022/06/05 02:10:26;;;;;;;;;21.40;21.20;;;;;21.35;66.56;100691.31;2046755;28;47709;-62
2022/06/05 02:11:31;;;;;;;;;18.80;18.40;;;;;21.34;66.49;100689.59;2046905;28;48123;-62
2022/06/05 02:12:33;;;;;;;;;18.60;18.60;;;;;21.35;66.75;100688.63;2046730;28;48284;-61
2022/06/05 02:13:33;;;;;;;;;18.00;16.80;;;;;21.35;67.15;100696.72;2046724;28;47570;-61
2022/06/05 02:14:35;;;;;;;;;20.25;20.25;;;;;21.34;67.04;100683.31;2048151;28;47447;-61
2022/06/05 02:15:35;;;;;;;;;18.40;18.40;;;;;21.34;67.27;100686.91;2045377;28;47031;-62
2022/06/05 02:16:38;;;;;;;;;19.00;17.00;;;;;21.34;66.98;100684.19;2045063;28;47494;-62
2022/06/05 02:17:39;;;;;;;;;16.20;14.20;;;;;21.34;67.13;100681.50;2046546;28;46138;-62
2022/06/05 02:18:40;;;;;;;;;15.60;14.20;;;;;21.34;66.95;100686.91;2044580;28;47034;-61
2022/06/05 02:19:41;;;;;;;;;18.60;18.60;;;;;21.34;66.82;100677.91;2044727;28;46501;-62
2022/06/05 02:20:43;;;;;;;;;16.60;16.60;;;;;21.33;66.85;100677.03;2046774;28;47661;-62
2022/06/05 02:21:44;;;;;;;;;16.40;16.40;;;;;21.34;67.05;100677.91;2044496;28;47914;-62
2022/06/05 02:22:48;;;;;;;;;19.75;18.75;;;;;21.33;66.94;100679.75;2044478;28;47967;-62
2022/06/05 02:23:48;;;;;;;;;14.80;14.80;;;;;21.33;66.80;100673.47;2046494;28;47970;-62
2022/06/05 02:24:49;;;;;;;;;15.50;15.25;;;;;21.33;67.07;100673.47;2047113;28;47129;-62
2022/06/05 02:25:50;;;;;;;;;17.25;17.25;;;;;21.31;66.59;100673.59;2046916;28;47841;-61
2022/06/05 02:26:50;;;;;;;;;20.50;20.50;;;;;21.31;66.88;100676.28;2047130;28;46591;-62
2022/06/05 02:27:56;;;;;;;;;17.50;15.25;;;;;21.30;67.11;100674.56;2044717;28;48128;-62
2022/06/05 02:28:57;;;;;;;;;16.20;16.20;;;;;21.29;67.00;100680.06;2063366;28;47702;-62
2022/06/05 02:29:58;;;;;;;;;19.60;19.60;;;;;21.29;66.98;100677.38;2077388;28;47812;-62
2022/06/05 02:31:18;;;;;;;;;19.00;19.00;;;;;21.28;67.04;100679.19;2078362;28;47514;-62
2022/06/05 02:32:28;;;;;;;;;21.00;20.20;;;;;21.29;67.08;100674.66;2078932;28;48577;-62
2022/06/05 02:33:38;;;;;;;;;23.20;22.60;;;;;21.28;66.53;100670.22;2078897;28;47512;-62
2022/06/05 02:34:55;;;;;;;;;19.20;18.80;;;;;21.28;66.97;100673.81;2077565;28;48093;-63
2022/06/05 02:36:09;;;;;;;;;21.00;19.80;;;;;21.28;67.17;100678.34;2077284;28;48359;-63
2022/06/05 02:37:18;;;;;;;;;19.60;19.60;;;;;21.28;66.98;100672.94;2078511;28;47969;-61
2022/06/05 02:38:35;;;;;;;;;18.60;18.60;;;;;21.28;66.71;100671.09;2074639;28;47863;-64
2022/06/05 02:40:11;;;;;;;;;22.20;20.00;;;;;21.28;67.14;100673.81;2076392;28;47531;-62
2022/06/05 02:41:32;;;;;;;;;19.40;17.80;;;;;21.27;67.06;100676.59;2045239;28;47316;-61
2022/06/05 02:42:52;;;;;;;;;23.60;22.60;;;;;21.27;66.84;100669.38;2055460;28;47019;-61
2022/06/05 02:45:30;;;;;;;;;19.20;18.80;;;;;21.27;67.19;100671.22;2062144;28;47908;-65
2022/06/05 02:46:41;;;;;;;;;21.40;21.40;;;;;21.26;67.08;100667.66;2062671;28;47945;-64
2022/06/05 02:48:16;;;;;;;;;20.40;19.80;;;;;21.27;67.10;100658.56;2064219;28;48532;-64
2022/06/05 02:49:31;;;;;;;;;22.20;20.60;;;;;21.27;66.45;100663.09;2046831;28;47380;-64
2022/06/05 02:51:05;;;;;;;;;20.60;19.00;;;;;21.28;66.56;100654.91;2048075;28;47599;-63
2022/06/05 02:52:07;;;;;;;;;17.80;17.80;;;;;21.29;66.75;100659.31;2039869;28;47422;-63
2022/06/05 02:53:09;;;;;;;;;17.40;17.40;;;;;21.29;67.31;100648.53;2038707;28;48037;-62
2022/06/05 02:54:19;;;;;;;;;20.00;19.00;;;;;21.29;67.02;100655.75;2038720;28;48070;-64
2022/06/05 02:55:21;;;;;;;;;21.20;21.20;;;;;21.29;67.13;100651.22;2038527;28;47584;-63
2022/06/05 02:56:26;;;;;;;;;22.60;21.80;;;;;21.29;66.88;100653.06;2038683;28;47878;-64
2022/06/05 02:57:32;;;;;;;;;19.40;17.60;;;;;21.28;67.26;100652.19;2038342;28;46506;-63
2022/06/05 02:58:33;;;;;;;;;20.60;19.60;;;;;21.27;67.23;100650.47;2030481;28;47904;-66
2022/06/05 02:59:33;;;;;;;;;23.75;22.00;;;;;21.27;67.17;100649.63;2023108;29;47648;-62
2022/06/05 03:00:36;;;;;;;;;23.50;21.75;;;;;21.26;66.51;100651.44;2037156;28;47670;-61
2022/06/05 03:04:15;;;;;;;;;21.20;20.40;;;;;21.24;66.50;100653.34;2026826;28;47771;-60
2022/06/05 03:05:16;;;;;;;;;23.75;22.50;;;;;21.25;66.60;100663.22;2022819;29;47801;-61
2022/06/05 03:06:17;;;;;;;;;22.60;22.60;;;;;21.25;66.72;100662.31;2028087;28;47651;-62
2022/06/05 03:07:17;;;;;;;;;20.75;20.75;;;;;21.23;67.09;100654.31;2039196;28;47688;-64
2022/06/05 03:08:19;;;;;;;;;22.50;22.00;;;;;21.25;66.78;100651.53;2038483;28;47349;-65
2022/06/05 03:09:20;;;;;;;;;22.00;22.00;;;;;21.24;66.53;100653.34;2038495;28;47527;-63
2022/06/05 03:10:20;;;;;;;;;22.50;22.25;;;;;21.24;67.17;100647.97;2039518;28;48051;-62
2022/06/05 03:11:24;;;;;;;;;23.25;22.75;;;;;21.25;67.05;100644.31;2038422;28;47334;-64
2022/06/05 03:12:24;;;;;;;;;20.20;20.20;;;;;21.26;66.99;100646.06;2030110;29;49063;-64
2022/06/05 03:13:25;;;;;;;;;19.25;19.25;;;;;21.27;67.20;100653.19;2033312;28;48412;-61
2022/06/05 03:14:26;;;;;;;;;22.75;20.50;;;;;21.26;66.59;100654.16;2038337;28;47702;-61
2022/06/05 03:15:26;;;;;;;;;22.50;21.00;;;;;21.26;66.59;100654.16;2038847;28;47882;-63
2022/06/05 03:16:28;;;;;;;;;21.00;19.25;;;;;21.26;66.88;100656.84;2040638;28;47760;-62
2022/06/05 03:17:29;;;;;;;;;21.20;19.80;;;;;21.27;66.97;100655.88;2038590;28;47844;-63
2022/06/05 03:18:30;;;;;;;;;19.00;18.60;;;;;21.27;66.74;100650.47;2062057;28;47120;-63
2022/06/05 03:19:30;;;;;;;;;23.75;22.25;;;;;21.28;66.99;100662.13;2071556;28;47834;-63
2022/06/05 03:20:41;;;;;;;;;18.40;16.60;;;;;21.26;66.69;100662.25;2061641;28;48533;-62
2022/06/05 03:21:41;;;;;;;;;14.40;14.40;;;;;21.26;66.56;100664.06;2062247;28;47635;-62
2022/06/05 03:22:42;;;;;;;;;18.00;17.50;;;;;21.26;66.86;100666.78;2070541;28;47856;-63
2022/06/05 03:23:42;;;;;;;;;21.40;21.00;;;;;21.26;67.01;100669.47;2070617;28;47578;-61
2022/06/05 03:24:43;;;;;;;;;19.25;19.00;;;;;21.26;66.59;100672.19;2062352;28;47906;-61
2022/06/05 03:25:43;;;;;;;;;19.25;19.25;;;;;21.25;66.93;100670.41;2067936;28;46535;-61
2022/06/05 03:26:45;;;;;;;;;17.00;17.00;;;;;21.24;66.31;100665.97;2075436;28;47529;-62
2022/06/05 03:27:46;;;;;;;;;19.40;19.20;;;;;21.24;67.00;100665.97;2077381;28;47986;-62
2022/06/05 03:28:47;;;;;;;;;20.00;20.00;;;;;21.23;67.15;100664.25;2086578;28;47744;-63
2022/06/05 03:29:48;;;;;;;;;20.75;18.50;;;;;21.24;66.65;100676.78;2094857;28;47553;-64
2022/06/05 03:30:48;;;;;;;;;19.50;19.00;;;;;21.23;66.91;100664.25;2096517;28;48022;-64
2022/06/05 03:31:49;;;;;;;;;16.50;14.25;;;;;21.22;66.80;100660.69;2094616;28;47227;-64
2022/06/05 03:32:49;;;;;;;;;16.50;15.00;;;;;21.23;66.35;100669.66;2095404;28;47774;-64
2022/06/05 03:33:50;;;;;;;;;15.00;15.00;;;;;21.23;66.51;100666.97;2095536;28;47642;-64
2022/06/05 03:34:50;;;;;;;;;20.25;17.50;;;;;21.22;66.31;100668.78;2088740;28;47529;-64
2022/06/05 03:35:51;;;;;;;;;18.50;17.25;;;;;21.21;65.94;100672.44;2089298;28;47557;-63
2022/06/05 03:36:51;;;;;;;;;17.00;16.50;;;;;21.20;65.97;100662.59;2095926;28;47674;-62
2022/06/05 03:37:52;;;;;;;;;14.00;14.00;;;;;21.19;66.11;100674.38;2097896;28;47752;-61
2022/06/05 03:38:52;;;;;;;;;16.25;13.25;;;;;21.19;66.40;100670.81;2096772;28;47403;-62
2022/06/05 03:39:53;;;;;;;;;14.00;14.00;;;;;21.17;66.07;100670.91;2095842;28;46111;-62
2022/06/05 03:40:54;;;;;;;;;16.00;13.50;;;;;21.16;65.92;100671.88;2098239;28;47241;-62
2022/06/05 03:41:54;;;;;;;;;17.25;17.25;;;;;21.16;66.24;100677.28;2104043;28;48186;-62
2022/06/05 03:42:55;;;;;;;;;17.75;16.50;;;;;21.16;65.91;100677.28;2101268;28;48020;-62
2022/06/05 03:43:56;;;;;;;;;17.20;16.60;;;;;21.16;66.03;100679.97;2098797;28;47863;-64
2022/06/05 03:44:57;;;;;;;;;16.00;16.00;;;;;21.15;65.87;100683.66;2089446;28;46825;-64
2022/06/05 03:46:05;;;;;;;;;15.00;14.50;;;;;21.15;65.72;100687.22;2091509;28;47202;-63
2022/06/05 03:47:08;;;;;;;;;14.40;13.60;;;;;21.14;65.57;100682.78;2095809;28;45764;-63
2022/06/05 03:48:09;;;;;;;;;20.00;18.00;;;;;21.12;65.88;100683.84;2095563;28;47561;-63
2022/06/05 03:49:10;;;;;;;;;14.80;14.00;;;;;21.11;66.08;100682.13;2097648;28;47786;-64
2022/06/05 03:50:12;;;;;;;;;14.60;13.80;;;;;21.11;65.67;100684.81;2092217;28;47818;-62
2022/06/05 03:51:18;;;;;;;;;13.60;13.60;;;;;21.11;65.42;100684.81;2086567;28;47846;-62
2022/06/05 03:52:19;;;;;;;;;14.60;14.20;;;;;21.10;65.76;100685.78;2099735;28;47964;-61
2022/06/05 03:53:19;;;;;;;;;14.00;13.00;;;;;21.10;65.71;100696.59;2105449;27;47864;-61
2022/06/05 03:54:19;;;;;;;;;12.00;11.75;;;;;21.10;66.07;100705.56;2106438;27;47938;-62
2022/06/05 03:55:22;;;;;;;;;15.00;15.00;;;;;21.10;65.90;100704.69;2104500;27;47081;-61
2022/06/05 03:56:25;;;;;;;;;16.80;14.80;;;;;21.09;65.48;100702.97;2104806;28;47335;-61
2022/06/05 03:57:25;;;;;;;;;11.40;11.40;;;;;21.08;65.73;100710.16;2106261;27;47587;-62
2022/06/05 03:58:26;;;;;;;;;13.75;13.50;;;;;21.07;65.86;100712.97;2105099;27;47602;-61
2022/06/05 03:59:26;;;;;;;;;14.67;13.67;;;;;21.07;65.62;100715.66;2095734;28;46960;-62
2022/06/05 04:00:26;;;;;;;;;16.25;16.25;;;;;21.06;65.52;100716.63;2095764;28;47885;-61
2022/06/05 04:01:27;;;;;;;;;13.50;12.25;;;;;21.07;65.59;100715.66;2105339;27;47250;-62
2022/06/05 04:02:28;;;;;;;;;16.60;15.60;;;;;21.07;65.82;100715.66;2105606;27;47532;-62
2022/06/05 04:03:28;;;;;;;;;16.00;15.75;;;;;21.07;65.67;100712.97;2094064;28;47873;-61
2022/06/05 04:04:29;;;;;;;;;15.25;14.25;;;;;21.06;65.49;100711.22;2096004;28;47612;-61
2022/06/05 04:05:29;;;;;;;;;15.00;15.00;;;;;21.05;65.82;100723.84;2104675;27;47759;-61
2022/06/05 04:06:31;;;;;;;;;13.00;13.00;;;;;21.07;65.94;100719.22;2105966;27;47495;-61
2022/06/05 04:07:32;;;;;;;;;15.40;14.80;;;;;21.08;65.97;100722.78;2104606;28;47594;-62
2022/06/05 04:08:34;;;;;;;;;13.00;13.00;;;;;21.08;66.10;100723.66;2104554;27;47969;-61
2022/06/05 04:09:34;;;;;;;;;14.00;13.00;;;;;21.09;65.94;100721.84;2105434;27;48151;-61
2022/06/05 04:10:37;;;;;;;;;13.00;13.00;;;;;21.08;65.99;100726.34;2105296;27;47905;-62
2022/06/05 04:11:38;;;;;;;;;13.75;13.75;;;;;21.08;66.15;100729.03;2109128;27;48005;-62
2022/06/05 04:12:39;;;;;;;;;11.00;8.80;;;;;21.09;65.72;100725.41;2111632;27;47778;-62
2022/06/05 04:13:40;;;;;;;;;14.75;14.75;;;;;21.10;66.20;100734.38;2101549;28;47737;-62
2022/06/05 04:14:40;;;;;;;;;14.75;14.75;;;;;21.10;65.51;100727.13;2106342;27;47550;-62
2022/06/05 04:15:41;;;;;;;;;13.00;13.00;;;;;21.11;66.05;100725.31;2105126;28;47422;-62
2022/06/05 04:16:42;;;;;;;;;15.60;15.00;;;;;21.12;65.65;100735.13;2103364;27;47862;-62
2022/06/05 04:17:42;;;;;;;;;12.25;12.00;;;;;21.15;65.50;100737.63;2096884;28;47784;-62
2022/06/05 04:18:43;;;;;;;;;14.00;14.00;;;;;21.15;65.72;100738.47;2106420;27;47905;-62
2022/06/05 04:19:43;;;;;;;;;12.25;12.25;;;;;21.14;65.60;100739.44;2106740;27;47517;-62
2022/06/05 04:20:44;;;;;;;;;12.25;12.25;;;;;21.16;66.01;100742.06;2104907;28;47599;-62
2022/06/05 04:21:46;;;;;;;;;14.00;14.00;;;;;21.15;65.97;100738.47;2106681;27;47520;-62
2022/06/05 04:22:47;;;;;;;;;14.60;12.80;;;;;21.17;66.06;100736.53;2103837;27;47991;-62
2022/06/05 04:23:48;;;;;;;;;13.00;13.00;;;;;21.17;65.65;100743.78;2086227;28;47136;-62
2022/06/05 04:24:49;;;;;;;;;12.25;12.25;;;;;21.18;65.75;100742.81;2088538;28;47771;-62
2022/06/05 04:25:50;;;;;;;;;11.00;11.00;;;;;21.19;65.54;100743.66;2095444;28;47512;-62
2022/06/05 04:26:50;;;;;;;;;12.75;12.25;;;;;21.21;65.54;100752.53;2103894;27;47692;-62
2022/06/05 04:27:51;;;;;;;;;13.33;13.33;;;;;21.21;66.26;100747.13;2113033;27;46241;-62
2022/06/05 04:28:54;;;;;;;;;13.00;12.75;;;;;21.20;65.84;100748.09;2113099;27;48033;-62
2022/06/05 04:29:54;;;;;;;;;12.25;11.25;;;;;21.20;66.13;100748.09;2108003;27;48197;-63
2022/06/05 04:30:54;;;;;;;;;13.25;12.00;;;;;21.20;66.05;100750.81;2104003;27;47631;-62
2022/06/05 04:31:55;;;;;;;;;14.50;13.75;;;;;21.18;66.09;100761.69;2102251;27;47235;-61
2022/06/05 04:32:56;;;;;;;;;13.60;12.60;;;;;21.18;65.59;100759.00;2102879;27;47411;-62
2022/06/05 04:33:59;;;;;;;;;13.25;13.25;;;;;21.16;65.64;100764.50;2104880;27;47551;-63
2022/06/05 04:34:59;;;;;;;;;14.00;14.00;;;;;21.15;65.05;100762.78;2105624;27;47664;-63
2022/06/05 04:36:00;;;;;;;;;12.75;12.00;;;;;21.14;64.97;100755.66;2097258;28;47744;-62
2022/06/05 04:37:00;;;;;;;;;13.67;12.33;;;;;21.14;65.42;100749.38;2087265;28;48005;-63
2022/06/05 04:38:01;;;;;;;;;10.75;10.75;;;;;21.13;65.27;100755.75;2097176;28;47306;-62
2022/06/05 04:39:02;;;;;;;;;11.00;11.00;;;;;21.12;65.13;100754.03;2094838;28;45381;-62
2022/06/05 04:40:05;;;;;;;;;9.00;8.75;;;;;21.11;65.16;100752.28;2095369;28;47600;-62
2022/06/05 04:41:06;;;;;;;;;11.25;11.25;;;;;21.10;65.30;100759.53;2105851;27;47559;-63
2022/06/05 04:42:06;;;;;;;;;9.33;9.33;;;;;21.10;65.67;100761.34;2104736;27;47231;-62
2022/06/05 04:43:08;;;;;;;;;11.67;10.33;;;;;21.10;65.53;100764.91;2110316;27;47804;-62
2022/06/05 04:44:12;;;;;;;;;11.75;11.50;;;;;21.11;65.58;100773.88;2108377;27;47999;-62
2022/06/05 04:45:13;;;;;;;;;13.50;13.00;;;;;21.12;65.30;100775.59;2104383;27;47663;-62
2022/06/05 04:46:13;;;;;;;;;11.67;10.33;;;;;21.13;65.76;100783.59;2106571;27;47482;-63
2022/06/05 04:47:14;;;;;;;;;12.33;12.33;;;;;21.13;65.95;100783.59;2106292;27;46658;-64
2022/06/05 04:48:14;;;;;;;;;12.00;11.00;;;;;21.15;65.28;100780.81;2104895;28;47560;-64
2022/06/05 04:49:15;;;;;;;;;11.67;11.00;;;;;21.15;65.95;100787.06;2106339;27;47168;-64
2022/06/05 04:50:15;;;;;;;;;14.00;10.67;;;;;21.16;66.05;100782.53;2107075;27;46382;-62
2022/06/05 04:51:18;;;;;;;;;10.33;10.33;;;;;21.16;65.47;100794.19;2104624;27;46064;-63
2022/06/05 04:52:19;;;;;;;;;13.25;10.25;;;;;21.15;65.59;100791.59;2110255;27;47869;-63
2022/06/05 04:53:19;;;;;;;;;12.33;11.00;;;;;21.15;65.50;100794.28;2112941;27;47312;-62
2022/06/05 04:54:20;;;;;;;;;11.67;11.67;;;;;21.14;65.22;100793.44;2106033;27;47065;-63
2022/06/05 04:55:21;;;;;;;;;11.33;11.33;;;;;21.14;65.12;100793.44;2106119;27;47151;-63
2022/06/05 04:56:24;;;;;;;;;11.75;11.25;;;;;21.14;64.95;100790.72;2095393;28;47414;-63
2022/06/05 04:57:25;;;;;;;;;10.00;10.00;;;;;21.13;65.45;100788.13;2100601;27;47791;-62
2022/06/05 04:58:25;;;;;;;;;8.33;8.33;;;;;21.15;65.48;100794.28;2110076;27;47829;-63
2022/06/05 04:59:26;;;;;;;;;12.00;12.00;;;;;21.13;65.35;100797.09;2104945;28;47378;-62
2022/06/05 05:00:26;;;;;;;;;13.33;13.33;;;;;21.12;65.05;100800.75;2104772;27;47180;-63
2022/06/05 05:01:30;;;;;;;;;10.67;10.33;;;;;21.12;65.38;100799.91;2104446;28;47779;-62
2022/06/05 05:02:30;;;;;;;;;12.25;11.75;;;;;21.12;65.30;100794.50;2100742;28;47874;-63
2022/06/05 05:03:31;;;;;;;;;12.33;12.00;;;;;21.11;65.25;100801.72;2106310;27;47615;-62